This is the latest recevied weather packets stored in our database for station/object GW1699. If no packets are shown the sender has not sent any weather packets the latest 10 day(s).
| Time | Temp. | Humidity | Pressure | Rain* | Wind** | Luminosity | Snow |
|---|---|---|---|---|---|---|---|
| 1778199671 | 10.56° C | 72% | 1011.1 hPa | 0.25 mm | - | - | - |
| 1778198990 | 10.56° C | 72% | 1010.8 hPa | 0.25 mm | - | - | - |
| 1778196827 | 12.78° C | 69% | 1010.4 hPa | 0.25 mm | - | - | - |
| 1778194280 | 15.56° C | 49% | 1010.1 hPa | 0.25 mm | - | - | - |
| 1778193927 | 15.56° C | 58% | 1010.1 hPa | 0.25 mm | - | - | - |
| 1778193558 | 15.56° C | 53% | 1010.1 hPa | 0.25 mm | - | - | - |
| 1778192839 | 15° C | 47% | 1009.8 hPa | 0.25 mm | - | - | - |
| 1778185312 | 16.11° C | 47% | 1009.4 hPa | 0.25 mm | - | - | - |
| 1778182052 | 15.56° C | 47% | 1009.8 hPa | 0.25 mm | - | - | - |
| 1778174852 | 16.11° C | 48% | 1010.4 hPa | 0.25 mm | - | - | - |
| 1778173752 | 14.44° C | 56% | 1010.8 hPa | 0.25 mm | - | - | - |
| 1778172695 | 13.89° C | 59% | 1010.8 hPa | 0.25 mm | - | - | - |
| 1778156868 | 9.44° C | 99% | 1012.8 hPa | 0.25 mm | - | - | - |
| 1778156487 | 9.44° C | 99% | 1012.8 hPa | 0.25 mm | - | - | - |
| 1778153606 | 8.89° C | 99% | 1012.5 hPa | 0.25 mm | - | - | - |
| 1778152513 | 8.89° C | 99% | 1012.1 hPa | 0.25 mm | - | - | - |
| 1778148212 | 8.33° C | 99% | 1012.1 hPa | 0.25 mm | - | - | - |
| 1778146424 | 8.89° C | 99% | 1011.8 hPa | 0.25 mm | - | - | - |
| 1778145310 | 8.89° C | 99% | 1011.8 hPa | 0.25 mm | - | - | - |
| 1778143165 | 8.89° C | 99% | 1011.8 hPa | 0.25 mm | - | - | - |
| 1778141017 | 8.89° C | 99% | 1011.8 hPa | 0.25 mm | - | - | - |
| 1778137390 | 9.44° C | 99% | 1011.8 hPa | 0.25 mm | - | - | - |
| 1778134169 | 9.44° C | 99% | 1011.8 hPa | 0.25 mm | - | - | - |
| 1778131308 | 10° C | 99% | 1012.1 hPa | 0.25 mm | - | - | - |
| 1778130222 | 10° C | 99% | 1012.1 hPa | 0 mm | - | - | - |
* Rain since midnight (hover to see other rain measurements)
** Current wind speed in m/s (hover to see current wind gust speed)